sensor_id;sensor_type;location;lat;lon;timestamp;P1;durP1;ratioP1;P2;durP2;ratioP2
37895;SDS011;23733;53.254;10.430;2023-05-07T00:00:13;7.30;;;6.03;;
37895;SDS011;23733;53.254;10.430;2023-05-07T00:02:41;8.00;;;6.00;;
37895;SDS011;23733;53.254;10.430;2023-05-07T00:05:07;8.30;;;5.60;;
37895;SDS011;23733;53.254;10.430;2023-05-07T00:07:33;7.40;;;6.00;;
37895;SDS011;23733;53.254;10.430;2023-05-07T00:09:59;8.40;;;5.23;;
37895;SDS011;23733;53.254;10.430;2023-05-07T00:12:25;6.60;;;5.23;;
37895;SDS011;23733;53.254;10.430;2023-05-07T00:14:51;7.17;;;5.30;;
37895;SDS011;23733;53.254;10.430;2023-05-07T00:17:17;6.77;;;5.60;;
37895;SDS011;23733;53.254;10.430;2023-05-07T00:19:43;7.40;;;5.43;;
37895;SDS011;23733;53.254;10.430;2023-05-07T00:22:09;7.07;;;5.13;;
37895;SDS011;23733;53.254;10.430;2023-05-07T00:24:36;6.57;;;5.53;;
37895;SDS011;23733;53.254;10.430;2023-05-07T00:27:02;7.13;;;5.40;;
37895;SDS011;23733;53.254;10.430;2023-05-07T00:29:28;9.47;;;5.83;;
37895;SDS011;23733;53.254;10.430;2023-05-07T00:31:54;6.77;;;5.60;;
37895;SDS011;23733;53.254;10.430;2023-05-07T00:34:20;7.80;;;5.60;;
37895;SDS011;23733;53.254;10.430;2023-05-07T00:36:46;6.93;;;5.57;;
37895;SDS011;23733;53.254;10.430;2023-05-07T00:39:12;6.57;;;5.20;;
37895;SDS011;23733;53.254;10.430;2023-05-07T00:41:38;6.93;;;5.33;;
37895;SDS011;23733;53.254;10.430;2023-05-07T00:44:04;5.97;;;5.30;;
37895;SDS011;23733;53.254;10.430;2023-05-07T00:46:30;7.90;;;5.77;;
37895;SDS011;23733;53.254;10.430;2023-05-07T00:48:58;6.90;;;5.60;;
37895;SDS011;23733;53.254;10.430;2023-05-07T00:51:25;6.03;;;5.07;;
37895;SDS011;23733;53.254;10.430;2023-05-07T00:53:52;7.03;;;5.80;;
37895;SDS011;23733;53.254;10.430;2023-05-07T00:56:20;6.80;;;5.50;;
37895;SDS011;23733;53.254;10.430;2023-05-07T00:58:47;6.83;;;5.57;;
37895;SDS011;23733;53.254;10.430;2023-05-07T01:01:13;6.67;;;5.33;;
37895;SDS011;23733;53.254;10.430;2023-05-07T01:03:42;6.77;;;5.77;;
37895;SDS011;23733;53.254;10.430;2023-05-07T01:06:08;7.00;;;5.87;;
37895;SDS011;23733;53.254;10.430;2023-05-07T01:08:38;7.30;;;5.77;;
37895;SDS011;23733;53.254;10.430;2023-05-07T01:11:05;7.67;;;5.70;;
37895;SDS011;23733;53.254;10.430;2023-05-07T01:13:33;7.50;;;5.37;;
37895;SDS011;23733;53.254;10.430;2023-05-07T01:16:00;7.07;;;5.50;;
37895;SDS011;23733;53.254;10.430;2023-05-07T01:18:26;7.27;;;6.03;;
37895;SDS011;23733;53.254;10.430;2023-05-07T01:20:52;7.17;;;5.97;;
37895;SDS011;23733;53.254;10.430;2023-05-07T01:23:21;7.00;;;5.40;;
37895;SDS011;23733;53.254;10.430;2023-05-07T01:25:51;7.17;;;5.97;;
37895;SDS011;23733;53.254;10.430;2023-05-07T01:28:18;9.63;;;6.07;;
37895;SDS011;23733;53.254;10.430;2023-05-07T01:30:45;6.83;;;5.77;;
37895;SDS011;23733;53.254;10.430;2023-05-07T01:33:15;8.57;;;5.90;;
37895;SDS011;23733;53.254;10.430;2023-05-07T01:35:47;6.93;;;5.47;;
37895;SDS011;23733;53.254;10.430;2023-05-07T01:38:16;6.37;;;5.17;;
37895;SDS011;23733;53.254;10.430;2023-05-07T01:40:43;7.27;;;5.53;;
37895;SDS011;23733;53.254;10.430;2023-05-07T01:43:09;7.10;;;5.40;;
37895;SDS011;23733;53.254;10.430;2023-05-07T01:45:36;6.73;;;5.97;;
37895;SDS011;23733;53.254;10.430;2023-05-07T01:48:02;7.93;;;5.67;;
37895;SDS011;23733;53.254;10.430;2023-05-07T01:50:29;7.50;;;6.00;;
37895;SDS011;23733;53.254;10.430;2023-05-07T01:52:56;8.23;;;6.40;;
37895;SDS011;23733;53.254;10.430;2023-05-07T01:55:23;7.87;;;6.07;;
37895;SDS011;23733;53.254;10.430;2023-05-07T01:57:49;8.80;;;6.40;;
37895;SDS011;23733;53.254;10.430;2023-05-07T02:00:15;7.53;;;6.33;;
37895;SDS011;23733;53.254;10.430;2023-05-07T02:02:41;10.23;;;6.90;;
37895;SDS011;23733;53.254;10.430;2023-05-07T02:05:07;8.40;;;6.80;;
37895;SDS011;23733;53.254;10.430;2023-05-07T02:07:33;9.17;;;7.37;;
37895;SDS011;23733;53.254;10.430;2023-05-07T02:09:59;9.33;;;7.57;;
37895;SDS011;23733;53.254;10.430;2023-05-07T02:12:25;11.37;;;6.90;;
37895;SDS011;23733;53.254;10.430;2023-05-07T02:14:51;8.43;;;6.90;;
37895;SDS011;23733;53.254;10.430;2023-05-07T02:17:18;8.30;;;6.73;;
37895;SDS011;23733;53.254;10.430;2023-05-07T02:19:44;11.37;;;6.83;;
37895;SDS011;23733;53.254;10.430;2023-05-07T02:22:10;7.53;;;6.57;;
37895;SDS011;23733;53.254;10.430;2023-05-07T02:24:36;9.43;;;6.80;;
37895;SDS011;23733;53.254;10.430;2023-05-07T02:27:02;9.57;;;6.83;;
37895;SDS011;23733;53.254;10.430;2023-05-07T02:29:28;8.53;;;6.50;;
37895;SDS011;23733;53.254;10.430;2023-05-07T02:31:55;7.67;;;6.50;;
37895;SDS011;23733;53.254;10.430;2023-05-07T02:34:21;9.80;;;7.17;;
37895;SDS011;23733;53.254;10.430;2023-05-07T02:36:47;9.23;;;6.60;;
37895;SDS011;23733;53.254;10.430;2023-05-07T02:39:13;11.13;;;7.53;;
37895;SDS011;23733;53.254;10.430;2023-05-07T02:41:39;11.17;;;6.80;;
37895;SDS011;23733;53.254;10.430;2023-05-07T02:44:05;9.27;;;7.00;;
37895;SDS011;23733;53.254;10.430;2023-05-07T02:46:31;8.97;;;6.80;;
37895;SDS011;23733;53.254;10.430;2023-05-07T02:48:57;11.77;;;7.27;;
37895;SDS011;23733;53.254;10.430;2023-05-07T02:51:23;10.60;;;7.40;;
37895;SDS011;23733;53.254;10.430;2023-05-07T02:53:49;10.70;;;7.53;;
37895;SDS011;23733;53.254;10.430;2023-05-07T02:56:15;10.40;;;6.90;;
37895;SDS011;23733;53.254;10.430;2023-05-07T02:58:41;10.07;;;7.67;;
37895;SDS011;23733;53.254;10.430;2023-05-07T03:01:07;10.50;;;7.70;;
37895;SDS011;23733;53.254;10.430;2023-05-07T03:03:34;10.90;;;8.17;;
37895;SDS011;23733;53.254;10.430;2023-05-07T03:06:00;8.20;;;6.53;;
37895;SDS011;23733;53.254;10.430;2023-05-07T03:08:26;10.57;;;7.50;;
37895;SDS011;23733;53.254;10.430;2023-05-07T03:10:52;10.50;;;7.77;;
37895;SDS011;23733;53.254;10.430;2023-05-07T03:13:18;9.27;;;7.37;;
37895;SDS011;23733;53.254;10.430;2023-05-07T03:15:44;9.87;;;7.63;;
37895;SDS011;23733;53.254;10.430;2023-05-07T03:18:10;8.47;;;7.10;;
37895;SDS011;23733;53.254;10.430;2023-05-07T03:20:36;10.60;;;7.10;;
37895;SDS011;23733;53.254;10.430;2023-05-07T03:23:02;9.33;;;7.10;;
37895;SDS011;23733;53.254;10.430;2023-05-07T03:25:28;10.17;;;7.63;;
37895;SDS011;23733;53.254;10.430;2023-05-07T03:27:57;8.77;;;6.60;;
37895;SDS011;23733;53.254;10.430;2023-05-07T03:30:23;9.47;;;6.53;;
37895;SDS011;23733;53.254;10.430;2023-05-07T03:32:50;8.43;;;7.10;;
37895;SDS011;23733;53.254;10.430;2023-05-07T03:35:16;8.43;;;6.63;;
37895;SDS011;23733;53.254;10.430;2023-05-07T03:37:42;9.50;;;6.93;;
37895;SDS011;23733;53.254;10.430;2023-05-07T03:40:08;9.50;;;7.30;;
37895;SDS011;23733;53.254;10.430;2023-05-07T03:42:35;9.83;;;7.70;;
37895;SDS011;23733;53.254;10.430;2023-05-07T03:45:01;9.23;;;7.07;;
37895;SDS011;23733;53.254;10.430;2023-05-07T03:47:28;10.30;;;7.20;;
37895;SDS011;23733;53.254;10.430;2023-05-07T03:49:54;11.40;;;7.60;;
37895;SDS011;23733;53.254;10.430;2023-05-07T03:52:20;9.27;;;7.20;;
37895;SDS011;23733;53.254;10.430;2023-05-07T03:54:51;9.73;;;7.53;;
37895;SDS011;23733;53.254;10.430;2023-05-07T03:57:18;10.27;;;7.03;;
37895;SDS011;23733;53.254;10.430;2023-05-07T03:59:44;10.77;;;7.13;;
37895;SDS011;23733;53.254;10.430;2023-05-07T04:02:10;10.27;;;8.00;;
37895;SDS011;23733;53.254;10.430;2023-05-07T04:04:36;11.40;;;7.80;;
37895;SDS011;23733;53.254;10.430;2023-05-07T04:07:02;10.13;;;7.47;;
37895;SDS011;23733;53.254;10.430;2023-05-07T04:09:28;9.90;;;7.20;;
37895;SDS011;23733;53.254;10.430;2023-05-07T04:11:54;10.83;;;7.73;;
37895;SDS011;23733;53.254;10.430;2023-05-07T04:14:20;10.43;;;7.47;;
37895;SDS011;23733;53.254;10.430;2023-05-07T04:16:46;10.90;;;7.83;;
37895;SDS011;23733;53.254;10.430;2023-05-07T04:19:12;11.60;;;7.40;;
37895;SDS011;23733;53.254;10.430;2023-05-07T04:21:38;11.37;;;8.00;;
37895;SDS011;23733;53.254;10.430;2023-05-07T04:24:04;10.07;;;7.20;;
37895;SDS011;23733;53.254;10.430;2023-05-07T04:26:30;10.77;;;7.37;;
37895;SDS011;23733;53.254;10.430;2023-05-07T04:28:57;9.53;;;7.67;;
37895;SDS011;23733;53.254;10.430;2023-05-07T04:31:24;10.70;;;7.87;;
37895;SDS011;23733;53.254;10.430;2023-05-07T04:33:50;9.90;;;7.70;;
37895;SDS011;23733;53.254;10.430;2023-05-07T04:36:16;10.53;;;7.50;;
37895;SDS011;23733;53.254;10.430;2023-05-07T04:38:43;10.60;;;7.43;;
37895;SDS011;23733;53.254;10.430;2023-05-07T04:41:09;10.70;;;7.80;;
37895;SDS011;23733;53.254;10.430;2023-05-07T04:43:35;13.50;;;7.93;;
37895;SDS011;23733;53.254;10.430;2023-05-07T04:46:01;10.23;;;7.40;;
37895;SDS011;23733;53.254;10.430;2023-05-07T04:48:27;9.87;;;7.60;;
37895;SDS011;23733;53.254;10.430;2023-05-07T04:50:54;10.47;;;7.77;;
37895;SDS011;23733;53.254;10.430;2023-05-07T04:53:20;11.90;;;7.57;;
37895;SDS011;23733;53.254;10.430;2023-05-07T04:55:47;10.50;;;7.93;;
37895;SDS011;23733;53.254;10.430;2023-05-07T04:58:13;9.87;;;7.23;;
37895;SDS011;23733;53.254;10.430;2023-05-07T05:00:39;9.77;;;6.30;;
37895;SDS011;23733;53.254;10.430;2023-05-07T05:03:06;11.07;;;7.00;;
37895;SDS011;23733;53.254;10.430;2023-05-07T05:05:32;9.20;;;6.57;;
37895;SDS011;23733;53.254;10.430;2023-05-07T05:07:58;8.87;;;6.60;;
37895;SDS011;23733;53.254;10.430;2023-05-07T05:10:24;8.17;;;6.27;;
37895;SDS011;23733;53.254;10.430;2023-05-07T05:12:50;9.83;;;6.60;;
37895;SDS011;23733;53.254;10.430;2023-05-07T05:15:16;7.67;;;6.23;;
37895;SDS011;23733;53.254;10.430;2023-05-07T05:17:43;8.57;;;6.00;;
37895;SDS011;23733;53.254;10.430;2023-05-07T05:20:09;7.43;;;6.10;;
37895;SDS011;23733;53.254;10.430;2023-05-07T05:22:37;9.07;;;6.50;;
37895;SDS011;23733;53.254;10.430;2023-05-07T05:25:03;8.77;;;6.37;;
37895;SDS011;23733;53.254;10.430;2023-05-07T05:27:29;10.00;;;6.10;;
37895;SDS011;23733;53.254;10.430;2023-05-07T05:29:55;8.07;;;6.00;;
37895;SDS011;23733;53.254;10.430;2023-05-07T05:32:22;9.10;;;6.07;;
37895;SDS011;23733;53.254;10.430;2023-05-07T05:34:48;6.93;;;5.70;;
37895;SDS011;23733;53.254;10.430;2023-05-07T05:37:14;10.63;;;6.40;;
37895;SDS011;23733;53.254;10.430;2023-05-07T05:39:40;8.83;;;6.33;;
37895;SDS011;23733;53.254;10.430;2023-05-07T05:42:06;8.77;;;6.07;;
37895;SDS011;23733;53.254;10.430;2023-05-07T05:44:32;8.00;;;6.33;;
37895;SDS011;23733;53.254;10.430;2023-05-07T05:46:58;8.90;;;6.87;;
37895;SDS011;23733;53.254;10.430;2023-05-07T05:49:25;8.37;;;6.07;;
37895;SDS011;23733;53.254;10.430;2023-05-07T05:51:51;8.33;;;6.00;;
37895;SDS011;23733;53.254;10.430;2023-05-07T05:54:17;8.67;;;6.00;;
37895;SDS011;23733;53.254;10.430;2023-05-07T05:56:43;7.70;;;6.20;;
37895;SDS011;23733;53.254;10.430;2023-05-07T05:59:09;10.17;;;6.53;;
37895;SDS011;23733;53.254;10.430;2023-05-07T06:01:35;12.47;;;7.00;;
37895;SDS011;23733;53.254;10.430;2023-05-07T06:04:01;8.77;;;6.07;;
37895;SDS011;23733;53.254;10.430;2023-05-07T06:06:27;8.37;;;5.93;;
37895;SDS011;23733;53.254;10.430;2023-05-07T06:08:53;8.73;;;6.77;;
37895;SDS011;23733;53.254;10.430;2023-05-07T06:11:19;9.73;;;6.60;;
37895;SDS011;23733;53.254;10.430;2023-05-07T06:13:46;8.47;;;6.60;;
37895;SDS011;23733;53.254;10.430;2023-05-07T06:16:12;11.50;;;6.60;;
37895;SDS011;23733;53.254;10.430;2023-05-07T06:18:38;11.70;;;6.30;;
37895;SDS011;23733;53.254;10.430;2023-05-07T06:21:04;7.70;;;5.57;;
37895;SDS011;23733;53.254;10.430;2023-05-07T06:23:30;8.80;;;6.20;;
37895;SDS011;23733;53.254;10.430;2023-05-07T06:25:56;9.53;;;6.20;;
37895;SDS011;23733;53.254;10.430;2023-05-07T06:28:22;11.47;;;6.23;;
37895;SDS011;23733;53.254;10.430;2023-05-07T06:30:48;12.30;;;5.83;;
37895;SDS011;23733;53.254;10.430;2023-05-07T06:33:15;7.33;;;5.77;;
37895;SDS011;23733;53.254;10.430;2023-05-07T06:35:41;8.87;;;5.83;;
37895;SDS011;23733;53.254;10.430;2023-05-07T06:38:07;8.33;;;6.40;;
37895;SDS011;23733;53.254;10.430;2023-05-07T06:40:33;8.60;;;5.70;;
37895;SDS011;23733;53.254;10.430;2023-05-07T06:42:59;8.10;;;5.83;;
37895;SDS011;23733;53.254;10.430;2023-05-07T06:45:25;6.63;;;5.10;;
37895;SDS011;23733;53.254;10.430;2023-05-07T06:47:51;8.17;;;5.70;;
37895;SDS011;23733;53.254;10.430;2023-05-07T06:50:17;6.87;;;5.03;;
37895;SDS011;23733;53.254;10.430;2023-05-07T06:52:43;7.67;;;5.43;;
37895;SDS011;23733;53.254;10.430;2023-05-07T06:55:09;8.60;;;5.77;;
37895;SDS011;23733;53.254;10.430;2023-05-07T06:57:37;7.13;;;5.10;;
37895;SDS011;23733;53.254;10.430;2023-05-07T07:00:04;8.00;;;5.10;;
37895;SDS011;23733;53.254;10.430;2023-05-07T07:02:32;7.93;;;5.10;;
37895;SDS011;23733;53.254;10.430;2023-05-07T07:04:58;7.37;;;5.00;;
37895;SDS011;23733;53.254;10.430;2023-05-07T07:07:24;7.83;;;5.40;;
37895;SDS011;23733;53.254;10.430;2023-05-07T07:09:50;7.07;;;5.27;;
37895;SDS011;23733;53.254;10.430;2023-05-07T07:12:16;7.67;;;5.33;;
37895;SDS011;23733;53.254;10.430;2023-05-07T07:14:42;7.13;;;5.00;;
37895;SDS011;23733;53.254;10.430;2023-05-07T07:17:08;7.00;;;5.20;;
37895;SDS011;23733;53.254;10.430;2023-05-07T07:19:35;8.23;;;5.23;;
37895;SDS011;23733;53.254;10.430;2023-05-07T07:22:01;7.77;;;5.57;;
37895;SDS011;23733;53.254;10.430;2023-05-07T07:24:27;9.37;;;5.07;;
37895;SDS011;23733;53.254;10.430;2023-05-07T07:26:53;6.67;;;4.53;;
37895;SDS011;23733;53.254;10.430;2023-05-07T07:29:20;5.87;;;4.40;;
37895;SDS011;23733;53.254;10.430;2023-05-07T07:31:47;6.50;;;4.80;;
37895;SDS011;23733;53.254;10.430;2023-05-07T07:34:15;5.03;;;4.40;;
37895;SDS011;23733;53.254;10.430;2023-05-07T07:36:41;6.37;;;4.97;;
37895;SDS011;23733;53.254;10.430;2023-05-07T07:39:07;5.40;;;4.40;;
37895;SDS011;23733;53.254;10.430;2023-05-07T07:41:33;5.90;;;4.47;;
37895;SDS011;23733;53.254;10.430;2023-05-07T07:43:59;6.87;;;4.47;;
37895;SDS011;23733;53.254;10.430;2023-05-07T07:46:25;7.33;;;4.03;;
37895;SDS011;23733;53.254;10.430;2023-05-07T07:48:52;6.43;;;4.47;;
37895;SDS011;23733;53.254;10.430;2023-05-07T07:51:18;5.70;;;4.87;;
37895;SDS011;23733;53.254;10.430;2023-05-07T07:53:43;6.50;;;4.73;;
37895;SDS011;23733;53.254;10.430;2023-05-07T07:56:10;11.17;;;4.97;;
37895;SDS011;23733;53.254;10.430;2023-05-07T07:58:36;8.03;;;5.30;;
37895;SDS011;23733;53.254;10.430;2023-05-07T08:01:03;7.07;;;4.97;;
37895;SDS011;23733;53.254;10.430;2023-05-07T08:03:29;5.80;;;4.60;;
37895;SDS011;23733;53.254;10.430;2023-05-07T08:05:57;7.57;;;4.93;;
37895;SDS011;23733;53.254;10.430;2023-05-07T08:08:24;6.80;;;5.17;;
37895;SDS011;23733;53.254;10.430;2023-05-07T08:10:50;7.77;;;4.90;;
37895;SDS011;23733;53.254;10.430;2023-05-07T08:13:17;6.93;;;5.60;;
37895;SDS011;23733;53.254;10.430;2023-05-07T08:15:43;9.03;;;5.10;;
37895;SDS011;23733;53.254;10.430;2023-05-07T08:18:09;7.93;;;5.60;;
37895;SDS011;23733;53.254;10.430;2023-05-07T08:20:35;7.00;;;5.27;;
37895;SDS011;23733;53.254;10.430;2023-05-07T08:23:05;8.43;;;5.27;;
37895;SDS011;23733;53.254;10.430;2023-05-07T08:25:32;7.43;;;5.90;;
37895;SDS011;23733;53.254;10.430;2023-05-07T08:27:59;6.70;;;5.33;;
37895;SDS011;23733;53.254;10.430;2023-05-07T08:30:26;9.20;;;5.50;;
37895;SDS011;23733;53.254;10.430;2023-05-07T08:32:52;7.60;;;5.40;;
37895;SDS011;23733;53.254;10.430;2023-05-07T08:35:18;7.87;;;5.47;;
37895;SDS011;23733;53.254;10.430;2023-05-07T08:37:44;6.10;;;5.40;;
37895;SDS011;23733;53.254;10.430;2023-05-07T08:40:10;7.80;;;6.00;;
37895;SDS011;23733;53.254;10.430;2023-05-07T08:42:36;7.60;;;5.63;;
37895;SDS011;23733;53.254;10.430;2023-05-07T08:45:04;6.20;;;4.83;;
37895;SDS011;23733;53.254;10.430;2023-05-07T08:47:40;8.03;;;5.77;;
37895;SDS011;23733;53.254;10.430;2023-05-07T08:50:10;7.97;;;5.43;;
37895;SDS011;23733;53.254;10.430;2023-05-07T08:52:37;9.37;;;5.33;;
37895;SDS011;23733;53.254;10.430;2023-05-07T08:55:04;7.20;;;5.57;;
37895;SDS011;23733;53.254;10.430;2023-05-07T08:57:30;6.43;;;5.30;;
37895;SDS011;23733;53.254;10.430;2023-05-07T08:59:57;8.73;;;5.87;;
37895;SDS011;23733;53.254;10.430;2023-05-07T09:02:23;7.20;;;5.57;;
37895;SDS011;23733;53.254;10.430;2023-05-07T09:04:49;6.03;;;5.23;;
37895;SDS011;23733;53.254;10.430;2023-05-07T09:07:16;6.30;;;5.03;;
37895;SDS011;23733;53.254;10.430;2023-05-07T09:09:43;6.00;;;5.00;;
37895;SDS011;23733;53.254;10.430;2023-05-07T09:12:10;7.67;;;5.23;;
37895;SDS011;23733;53.254;10.430;2023-05-07T09:14:37;9.67;;;5.87;;
37895;SDS011;23733;53.254;10.430;2023-05-07T09:17:04;8.03;;;5.97;;
37895;SDS011;23733;53.254;10.430;2023-05-07T09:19:30;7.43;;;6.03;;
37895;SDS011;23733;53.254;10.430;2023-05-07T09:22:00;8.83;;;6.13;;
37895;SDS011;23733;53.254;10.430;2023-05-07T09:24:28;8.70;;;6.27;;
37895;SDS011;23733;53.254;10.430;2023-05-07T09:26:59;8.90;;;5.67;;
37895;SDS011;23733;53.254;10.430;2023-05-07T09:29:26;9.13;;;5.33;;
37895;SDS011;23733;53.254;10.430;2023-05-07T09:32:04;11.63;;;5.70;;
37895;SDS011;23733;53.254;10.430;2023-05-07T09:34:31;8.47;;;5.77;;
37895;SDS011;23733;53.254;10.430;2023-05-07T09:37:01;7.53;;;5.23;;
37895;SDS011;23733;53.254;10.430;2023-05-07T09:39:38;8.30;;;5.53;;
37895;SDS011;23733;53.254;10.430;2023-05-07T09:42:04;7.17;;;5.40;;
37895;SDS011;23733;53.254;10.430;2023-05-07T09:44:31;8.83;;;5.97;;
37895;SDS011;23733;53.254;10.430;2023-05-07T09:46:58;11.40;;;5.87;;
37895;SDS011;23733;53.254;10.430;2023-05-07T09:49:26;8.07;;;5.50;;
37895;SDS011;23733;53.254;10.430;2023-05-07T09:51:55;8.00;;;5.43;;
37895;SDS011;23733;53.254;10.430;2023-05-07T09:54:24;7.43;;;5.50;;
37895;SDS011;23733;53.254;10.430;2023-05-07T09:56:52;6.57;;;5.37;;
37895;SDS011;23733;53.254;10.430;2023-05-07T09:59:18;6.23;;;5.47;;
37895;SDS011;23733;53.254;10.430;2023-05-07T10:01:46;10.20;;;5.47;;
37895;SDS011;23733;53.254;10.430;2023-05-07T10:04:12;7.03;;;5.50;;
37895;SDS011;23733;53.254;10.430;2023-05-07T10:06:39;6.93;;;5.30;;
37895;SDS011;23733;53.254;10.430;2023-05-07T10:09:07;7.50;;;5.63;;
37895;SDS011;23733;53.254;10.430;2023-05-07T10:11:33;6.53;;;5.27;;
37895;SDS011;23733;53.254;10.430;2023-05-07T10:14:04;7.27;;;5.70;;
37895;SDS011;23733;53.254;10.430;2023-05-07T10:16:34;6.97;;;5.53;;
37895;SDS011;23733;53.254;10.430;2023-05-07T10:19:08;7.47;;;5.63;;
37895;SDS011;23733;53.254;10.430;2023-05-07T10:21:37;6.30;;;5.00;;
37895;SDS011;23733;53.254;10.430;2023-05-07T10:24:06;5.70;;;4.80;;
37895;SDS011;23733;53.254;10.430;2023-05-07T10:26:40;6.90;;;4.83;;
37895;SDS011;23733;53.254;10.430;2023-05-07T10:34:43;6.60;;;4.93;;
37895;SDS011;23733;53.254;10.430;2023-05-07T10:37:10;6.47;;;5.20;;
37895;SDS011;23733;53.254;10.430;2023-05-07T10:39:37;5.47;;;4.47;;
37895;SDS011;23733;53.254;10.430;2023-05-07T10:42:07;13.17;;;5.20;;
37895;SDS011;23733;53.254;10.430;2023-05-07T10:44:34;7.10;;;5.10;;
37895;SDS011;23733;53.254;10.430;2023-05-07T10:47:11;6.07;;;5.00;;
37895;SDS011;23733;53.254;10.430;2023-05-07T10:52:14;8.70;;;4.97;;
37895;SDS011;23733;53.254;10.430;2023-05-07T10:54:41;6.40;;;4.90;;
37895;SDS011;23733;53.254;10.430;2023-05-07T11:05:27;6.87;;;4.93;;
37895;SDS011;23733;53.254;10.430;2023-05-07T11:07:57;6.53;;;4.17;;
37895;SDS011;23733;53.254;10.430;2023-05-07T11:13:40;5.30;;;4.37;;
37895;SDS011;23733;53.254;10.430;2023-05-07T11:18:48;5.30;;;4.37;;
37895;SDS011;23733;53.254;10.430;2023-05-07T11:21:32;4.10;;;3.57;;
37895;SDS011;23733;53.254;10.430;2023-05-07T11:24:00;6.33;;;3.80;;
37895;SDS011;23733;53.254;10.430;2023-05-07T11:26:27;6.97;;;4.00;;
37895;SDS011;23733;53.254;10.430;2023-05-07T11:28:55;4.97;;;4.27;;
37895;SDS011;23733;53.254;10.430;2023-05-07T11:31:23;4.00;;;3.37;;
37895;SDS011;23733;53.254;10.430;2023-05-07T11:33:51;4.97;;;3.97;;
37895;SDS011;23733;53.254;10.430;2023-05-07T11:36:18;4.43;;;3.93;;
37895;SDS011;23733;53.254;10.430;2023-05-07T11:38:46;6.67;;;3.93;;
37895;SDS011;23733;53.254;10.430;2023-05-07T11:41:12;4.33;;;3.70;;
37895;SDS011;23733;53.254;10.430;2023-05-07T11:43:40;4.23;;;3.80;;
37895;SDS011;23733;53.254;10.430;2023-05-07T11:46:20;6.93;;;4.00;;
37895;SDS011;23733;53.254;10.430;2023-05-07T11:48:46;4.80;;;3.97;;
37895;SDS011;23733;53.254;10.430;2023-05-07T11:51:12;4.60;;;3.63;;
37895;SDS011;23733;53.254;10.430;2023-05-07T11:53:44;3.90;;;3.50;;
37895;SDS011;23733;53.254;10.430;2023-05-07T11:56:11;6.37;;;3.03;;
37895;SDS011;23733;53.254;10.430;2023-05-07T11:58:38;4.23;;;3.30;;
37895;SDS011;23733;53.254;10.430;2023-05-07T12:01:07;4.33;;;3.20;;
37895;SDS011;23733;53.254;10.430;2023-05-07T12:03:40;4.03;;;3.10;;
37895;SDS011;23733;53.254;10.430;2023-05-07T12:06:11;4.70;;;3.13;;
37895;SDS011;23733;53.254;10.430;2023-05-07T12:08:38;4.60;;;3.20;;
37895;SDS011;23733;53.254;10.430;2023-05-07T12:11:15;5.17;;;3.20;;
37895;SDS011;23733;53.254;10.430;2023-05-07T12:13:43;3.70;;;3.03;;
37895;SDS011;23733;53.254;10.430;2023-05-07T12:16:10;3.40;;;2.83;;
37895;SDS011;23733;53.254;10.430;2023-05-07T12:18:36;3.77;;;3.07;;
37895;SDS011;23733;53.254;10.430;2023-05-07T12:21:04;4.93;;;3.20;;
37895;SDS011;23733;53.254;10.430;2023-05-07T12:23:30;2.97;;;2.17;;
37895;SDS011;23733;53.254;10.430;2023-05-07T12:25:57;6.37;;;3.00;;
37895;SDS011;23733;53.254;10.430;2023-05-07T12:28:23;4.13;;;3.03;;
37895;SDS011;23733;53.254;10.430;2023-05-07T12:30:50;3.27;;;2.70;;
37895;SDS011;23733;53.254;10.430;2023-05-07T12:33:17;3.70;;;3.00;;
37895;SDS011;23733;53.254;10.430;2023-05-07T12:35:43;3.90;;;2.97;;
37895;SDS011;23733;53.254;10.430;2023-05-07T12:38:11;7.37;;;3.20;;
37895;SDS011;23733;53.254;10.430;2023-05-07T12:40:38;3.60;;;2.73;;
37895;SDS011;23733;53.254;10.430;2023-05-07T12:43:05;3.63;;;2.70;;
37895;SDS011;23733;53.254;10.430;2023-05-07T12:45:31;3.57;;;2.63;;
37895;SDS011;23733;53.254;10.430;2023-05-07T12:48:02;4.63;;;2.97;;
37895;SDS011;23733;53.254;10.430;2023-05-07T12:50:31;3.17;;;2.37;;
37895;SDS011;23733;53.254;10.430;2023-05-07T12:53:02;3.30;;;2.37;;
37895;SDS011;23733;53.254;10.430;2023-05-07T12:55:31;6.43;;;2.40;;
37895;SDS011;23733;53.254;10.430;2023-05-07T12:58:00;3.43;;;2.47;;
37895;SDS011;23733;53.254;10.430;2023-05-07T13:00:36;4.67;;;2.50;;
37895;SDS011;23733;53.254;10.430;2023-05-07T13:03:03;3.23;;;2.60;;
37895;SDS011;23733;53.254;10.430;2023-05-07T13:05:29;5.50;;;2.40;;
37895;SDS011;23733;53.254;10.430;2023-05-07T13:07:56;3.03;;;2.30;;
37895;SDS011;23733;53.254;10.430;2023-05-07T13:10:23;4.00;;;2.30;;
37895;SDS011;23733;53.254;10.430;2023-05-07T13:12:49;2.80;;;2.17;;
37895;SDS011;23733;53.254;10.430;2023-05-07T13:15:16;4.53;;;2.07;;
37895;SDS011;23733;53.254;10.430;2023-05-07T13:17:42;4.73;;;2.00;;
37895;SDS011;23733;53.254;10.430;2023-05-07T13:20:09;2.93;;;2.13;;
37895;SDS011;23733;53.254;10.430;2023-05-07T13:22:35;3.17;;;2.10;;
37895;SDS011;23733;53.254;10.430;2023-05-07T13:25:02;3.30;;;2.20;;
37895;SDS011;23733;53.254;10.430;2023-05-07T13:27:28;2.73;;;2.13;;
37895;SDS011;23733;53.254;10.430;2023-05-07T13:29:56;2.83;;;1.80;;
37895;SDS011;23733;53.254;10.430;2023-05-07T13:32:22;2.00;;;1.80;;
37895;SDS011;23733;53.254;10.430;2023-05-07T13:34:49;3.77;;;1.87;;
37895;SDS011;23733;53.254;10.430;2023-05-07T13:37:15;3.07;;;1.90;;
37895;SDS011;23733;53.254;10.430;2023-05-07T13:39:42;2.37;;;1.90;;
37895;SDS011;23733;53.254;10.430;2023-05-07T13:42:08;2.83;;;1.70;;
37895;SDS011;23733;53.254;10.430;2023-05-07T13:44:34;1.90;;;1.70;;
37895;SDS011;23733;53.254;10.430;2023-05-07T13:47:04;2.00;;;1.80;;
37895;SDS011;23733;53.254;10.430;2023-05-07T13:49:31;2.87;;;1.90;;
37895;SDS011;23733;53.254;10.430;2023-05-07T13:51:57;2.30;;;1.60;;
37895;SDS011;23733;53.254;10.430;2023-05-07T13:54:23;2.83;;;2.00;;
37895;SDS011;23733;53.254;10.430;2023-05-07T13:56:50;4.43;;;1.60;;
37895;SDS011;23733;53.254;10.430;2023-05-07T13:59:16;5.30;;;1.80;;
37895;SDS011;23733;53.254;10.430;2023-05-07T14:01:42;3.53;;;1.90;;
37895;SDS011;23733;53.254;10.430;2023-05-07T14:04:09;3.27;;;1.80;;
37895;SDS011;23733;53.254;10.430;2023-05-07T14:06:35;5.23;;;1.70;;
37895;SDS011;23733;53.254;10.430;2023-05-07T14:09:01;1.90;;;1.53;;
37895;SDS011;23733;53.254;10.430;2023-05-07T14:11:28;2.80;;;1.80;;
37895;SDS011;23733;53.254;10.430;2023-05-07T14:13:54;4.67;;;1.83;;
37895;SDS011;23733;53.254;10.430;2023-05-07T14:16:22;1.83;;;1.70;;
37895;SDS011;23733;53.254;10.430;2023-05-07T14:18:48;2.13;;;1.70;;
37895;SDS011;23733;53.254;10.430;2023-05-07T14:21:14;4.30;;;1.70;;
37895;SDS011;23733;53.254;10.430;2023-05-07T14:23:40;3.97;;;1.90;;
37895;SDS011;23733;53.254;10.430;2023-05-07T14:26:07;2.60;;;2.00;;
37895;SDS011;23733;53.254;10.430;2023-05-07T14:28:33;4.80;;;1.80;;
37895;SDS011;23733;53.254;10.430;2023-05-07T14:30:59;2.27;;;1.93;;
37895;SDS011;23733;53.254;10.430;2023-05-07T14:33:26;4.33;;;2.10;;
37895;SDS011;23733;53.254;10.430;2023-05-07T14:35:52;2.70;;;1.80;;
37895;SDS011;23733;53.254;10.430;2023-05-07T14:38:18;2.20;;;1.67;;
37895;SDS011;23733;53.254;10.430;2023-05-07T14:40:45;3.23;;;1.80;;
37895;SDS011;23733;53.254;10.430;2023-05-07T14:43:11;5.80;;;1.73;;
37895;SDS011;23733;53.254;10.430;2023-05-07T14:45:37;3.97;;;1.57;;
37895;SDS011;23733;53.254;10.430;2023-05-07T14:48:04;2.77;;;1.77;;
37895;SDS011;23733;53.254;10.430;2023-05-07T14:50:30;2.27;;;1.70;;
37895;SDS011;23733;53.254;10.430;2023-05-07T14:52:56;2.17;;;1.57;;